createdAt,value
2018-12-08T00:00:27.334Z,1.31
2018-12-08T00:02:58.120Z,1.20
2018-12-08T00:05:28.464Z,1.19
2018-12-08T00:07:58.751Z,1.20
2018-12-08T00:10:29.166Z,1.19
2018-12-08T00:12:59.467Z,1.26
2018-12-08T00:15:29.769Z,1.15
2018-12-08T00:18:00.153Z,1.11
2018-12-08T00:20:31.262Z,1.12
2018-12-08T00:23:01.545Z,1.14
2018-12-08T00:25:31.862Z,1.19
2018-12-08T00:28:02.113Z,1.35
2018-12-08T00:30:43.223Z,1.33
2018-12-08T00:33:13.478Z,1.35
2018-12-08T00:35:43.760Z,1.55
2018-12-08T00:38:14.073Z,1.65
2018-12-08T00:40:44.285Z,1.73
2018-12-08T00:43:14.477Z,1.73
2018-12-08T00:45:44.508Z,1.74
2018-12-08T00:48:14.783Z,1.78
2018-12-08T00:50:45.120Z,1.80
2018-12-08T00:53:15.241Z,1.71
2018-12-08T00:55:45.585Z,1.62
2018-12-08T00:58:15.814Z,1.65
2018-12-08T01:00:46.669Z,1.68
2018-12-08T01:03:16.829Z,1.66
2018-12-08T01:05:47.210Z,1.65
2018-12-08T01:08:17.567Z,1.67
2018-12-08T01:10:47.830Z,1.68
2018-12-08T01:13:18.041Z,1.63
2018-12-08T01:15:48.359Z,1.57
2018-12-08T01:18:18.567Z,1.39
2018-12-08T01:20:48.808Z,1.44
2018-12-08T01:23:19.161Z,1.39
2018-12-08T01:25:49.238Z,1.37
2018-12-08T01:28:19.529Z,1.33
2018-12-08T01:30:49.782Z,1.31
2018-12-08T01:33:19.913Z,1.11
2018-12-08T01:35:50.120Z,1.20
2018-12-08T01:38:21.412Z,1.23
2018-12-08T01:40:51.860Z,1.17
2018-12-08T01:43:22.045Z,1.07
2018-12-08T01:45:52.498Z,1.05
2018-12-08T01:48:22.663Z,1.01
2018-12-08T01:50:53.135Z,1.10
2018-12-08T01:53:23.635Z,1.17
2018-12-08T01:55:54.674Z,1.25
2018-12-08T01:58:25.242Z,1.25
2018-12-08T02:00:55.724Z,1.10
2018-12-08T02:03:25.966Z,1.02
2018-12-08T02:05:56.421Z,0.98
2018-12-08T02:08:26.694Z,0.96
2018-12-08T02:10:59.141Z,1.01
2018-12-08T02:13:29.564Z,0.99
2018-12-08T02:15:59.866Z,1.01
2018-12-08T02:18:30.798Z,1.04
2018-12-08T02:21:01.183Z,0.91
2018-12-08T02:23:31.527Z,0.86
2018-12-08T02:26:01.847Z,0.90
2018-12-08T02:28:32.228Z,0.86
2018-12-08T02:31:02.740Z,0.84
2018-12-08T02:33:32.971Z,0.87
2018-12-08T02:36:03.341Z,0.85
2018-12-08T02:38:33.677Z,0.86
2018-12-08T02:41:03.894Z,0.79
2018-12-08T02:43:34.121Z,0.82
2018-12-08T02:46:04.388Z,0.82
2018-12-08T02:48:34.485Z,0.84
2018-12-08T02:51:04.981Z,0.92
2018-12-08T02:53:35.218Z,0.94
2018-12-08T02:56:05.529Z,0.97
2018-12-08T02:58:35.893Z,0.91
2018-12-08T03:01:08.800Z,0.81
2018-12-08T03:03:38.879Z,0.86
2018-12-08T03:06:09.237Z,0.86
2018-12-08T03:08:39.569Z,0.90
2018-12-08T03:11:11.016Z,0.84
2018-12-08T03:13:41.317Z,0.82
2018-12-08T03:16:11.517Z,0.79
2018-12-08T03:18:41.592Z,0.77
2018-12-08T03:21:11.680Z,0.75
2018-12-08T03:23:41.926Z,0.68
2018-12-08T03:26:12.292Z,0.58
2018-12-08T03:28:42.544Z,0.64
2018-12-08T03:31:12.929Z,0.70
2018-12-08T03:33:43.235Z,0.68
2018-12-08T03:36:13.539Z,0.71
2018-12-08T03:38:43.755Z,0.65
2018-12-08T03:41:15.176Z,0.69
2018-12-08T03:43:45.423Z,0.70
2018-12-08T03:46:15.652Z,0.72
2018-12-08T03:48:45.981Z,0.73
2018-12-08T03:51:16.328Z,0.75
2018-12-08T03:53:46.564Z,0.80
2018-12-08T03:56:17.678Z,0.79
2018-12-08T03:58:47.930Z,0.59
2018-12-08T04:01:18.255Z,0.64
2018-12-08T04:03:48.588Z,0.61
2018-12-08T04:06:18.901Z,0.61
2018-12-08T04:08:49.025Z,0.55
2018-12-08T04:11:19.458Z,0.58
2018-12-08T04:13:49.712Z,0.59
2018-12-08T04:16:20.044Z,0.25
2018-12-08T04:18:50.541Z,0.44
2018-12-08T04:21:20.740Z,0.35
2018-12-08T04:23:50.919Z,0.48
2018-12-08T04:26:21.165Z,0.58
2018-12-08T04:28:52.606Z,0.62
2018-12-08T04:31:23.073Z,0.74
2018-12-08T04:33:53.801Z,0.62
2018-12-08T04:36:23.848Z,0.38
2018-12-08T04:38:54.154Z,0.54
2018-12-08T04:41:24.509Z,0.45
2018-12-08T04:43:54.884Z,0.47
2018-12-08T04:46:25.162Z,0.58
2018-12-08T04:48:56.118Z,0.63
2018-12-08T04:51:26.230Z,0.68
2018-12-08T04:56:36.033Z,0.61
2018-12-08T04:59:06.343Z,0.66
2018-12-08T05:01:36.524Z,0.52
2018-12-08T05:04:06.808Z,0.60
2018-12-08T05:06:36.946Z,0.68
2018-12-08T05:09:08.312Z,0.74
2018-12-08T05:11:38.538Z,0.75
2018-12-08T05:14:08.937Z,0.73
2018-12-08T05:16:39.258Z,0.71
2018-12-08T05:19:09.663Z,0.79
2018-12-08T05:21:40.050Z,0.80
2018-12-08T05:24:10.413Z,0.73
2018-12-08T05:26:40.615Z,0.73
2018-12-08T05:29:11.025Z,0.80
2018-12-08T05:31:41.311Z,0.75
2018-12-08T05:34:11.664Z,0.69
2018-12-08T05:36:41.855Z,0.74
2018-12-08T05:39:12.201Z,0.78
2018-12-08T05:41:42.598Z,0.77
2018-12-08T05:44:13.988Z,0.77
2018-12-08T05:46:44.084Z,0.78
2018-12-08T05:49:14.323Z,0.76
2018-12-08T05:51:44.563Z,0.81
2018-12-08T05:54:14.795Z,0.76
2018-12-08T05:56:45.175Z,0.78
2018-12-08T05:59:15.282Z,0.64
2018-12-08T06:01:45.605Z,0.74
2018-12-08T06:04:16.036Z,0.78
2018-12-08T06:06:46.263Z,0.76
2018-12-08T06:09:16.524Z,0.84
2018-12-08T06:11:46.733Z,0.93
2018-12-08T06:14:17.055Z,1.02
2018-12-08T06:16:47.430Z,1.14
2018-12-08T06:19:17.493Z,1.25
2018-12-08T06:21:47.822Z,1.39
2018-12-08T06:24:18.054Z,1.45
2018-12-08T06:28:02.625Z,1.50
2018-12-08T06:30:32.962Z,1.83
2018-12-08T06:33:03.457Z,2.04
2018-12-08T06:35:33.799Z,2.32
2018-12-08T06:38:05.302Z,2.55
2018-12-08T06:40:35.557Z,2.88
2018-12-08T06:43:05.787Z,3.05
2018-12-08T06:45:36.165Z,3.22
2018-12-08T06:48:06.532Z,3.41
2018-12-08T06:50:36.929Z,3.86
2018-12-08T06:53:07.857Z,4.02
2018-12-08T06:55:38.070Z,4.19
2018-12-08T06:58:08.251Z,4.31
2018-12-08T07:00:38.483Z,4.15
2018-12-08T07:03:10.950Z,4.14
2018-12-08T07:05:41.447Z,4.05
2018-12-08T07:08:11.553Z,4.06
2018-12-08T07:10:41.767Z,4.00
2018-12-08T07:13:12.066Z,3.97
2018-12-08T07:15:42.448Z,3.92
2018-12-08T07:18:12.821Z,3.91
2018-12-08T07:20:43.030Z,4.09
2018-12-08T07:23:13.354Z,4.15
2018-12-08T07:25:43.622Z,4.67
2018-12-08T07:28:13.725Z,5.73
2018-12-08T07:30:43.988Z,7.47
2018-12-08T07:33:14.415Z,8.58
2018-12-08T07:35:44.786Z,9.99
2018-12-08T07:38:15.089Z,11.59
2018-12-08T07:40:45.278Z,13.46
2018-12-08T07:43:15.462Z,15.13
2018-12-08T07:45:45.532Z,15.75
2018-12-08T07:48:16.051Z,16.53
2018-12-08T07:50:46.327Z,17.31
2018-12-08T07:53:16.553Z,18.06
2018-12-08T07:55:48.292Z,17.69
2018-12-08T07:58:18.671Z,17.14
2018-12-08T08:00:48.989Z,16.05
2018-12-08T08:03:19.197Z,15.46
2018-12-08T08:05:49.467Z,14.59
2018-12-08T08:08:20.358Z,13.92
2018-12-08T08:10:50.649Z,13.38
2018-12-08T08:13:21.022Z,12.54
2018-12-08T08:15:51.067Z,11.97
2018-12-08T08:18:21.197Z,11.42
2018-12-08T08:20:52.274Z,10.92
2018-12-08T08:23:22.614Z,9.99
2018-12-08T08:25:52.844Z,9.49
2018-12-08T08:28:23.051Z,9.44
2018-12-08T08:30:53.151Z,9.11
2018-12-08T08:33:23.426Z,8.98
2018-12-08T08:35:53.795Z,9.01
2018-12-08T08:38:24.062Z,9.16
2018-12-08T08:40:54.403Z,8.88
2018-12-08T08:43:24.697Z,8.87
2018-12-08T08:45:55.184Z,8.53
2018-12-08T08:48:25.496Z,8.44
2018-12-08T08:50:55.837Z,8.43
2018-12-08T08:53:28.144Z,8.37
2018-12-08T08:55:58.549Z,7.90
2018-12-08T08:58:28.985Z,7.84
2018-12-08T09:00:59.209Z,7.77
2018-12-08T09:03:29.619Z,7.94
2018-12-08T09:05:59.930Z,8.17
2018-12-08T09:08:30.327Z,8.39
2018-12-08T09:11:00.528Z,8.53
2018-12-08T09:13:30.739Z,8.54
2018-12-08T09:16:01.843Z,8.90
2018-12-08T09:18:32.205Z,9.38
2018-12-08T09:21:02.427Z,10.18
2018-12-08T09:23:32.724Z,10.53
2018-12-08T09:26:02.930Z,10.84
2018-12-08T09:28:33.173Z,11.30
2018-12-08T09:31:04.249Z,11.88
2018-12-08T09:33:34.762Z,12.51
2018-12-08T09:36:05.086Z,13.00
2018-12-08T09:38:35.272Z,13.11
2018-12-08T09:41:05.630Z,13.19
2018-12-08T09:43:35.972Z,12.96
2018-12-08T09:46:06.198Z,12.88
2018-12-08T09:48:36.408Z,12.47
2018-12-08T09:51:06.623Z,11.72
2018-12-08T09:53:36.825Z,11.21
2018-12-08T09:56:07.068Z,10.97
2018-12-08T09:58:37.339Z,10.54
2018-12-08T10:01:07.610Z,10.16
2018-12-08T10:03:37.810Z,9.99
2018-12-08T10:06:08.081Z,9.49
2018-12-08T10:08:38.454Z,9.23
2018-12-08T10:11:08.817Z,9.02
2018-12-08T10:13:39.001Z,8.83
2018-12-08T10:16:09.274Z,8.41
2018-12-08T10:18:39.438Z,8.21
2018-12-08T10:21:09.608Z,8.05
2018-12-08T10:23:39.981Z,7.70
2018-12-08T10:26:10.192Z,7.53
2018-12-08T10:28:40.445Z,7.44
2018-12-08T10:31:10.713Z,7.13
2018-12-08T10:33:42.011Z,7.01
2018-12-08T10:36:12.278Z,6.85
2018-12-08T10:38:42.437Z,6.78
2018-12-08T10:41:12.887Z,6.72
2018-12-08T10:43:43.319Z,6.69
2018-12-08T10:46:13.769Z,6.46
2018-12-08T10:48:44.115Z,6.34
2018-12-08T10:51:14.128Z,6.14
2018-12-08T10:53:46.429Z,5.94
2018-12-08T10:56:16.725Z,6.10
2018-12-08T10:58:46.917Z,6.07
2018-12-08T11:01:21.499Z,5.81
2018-12-08T11:03:52.406Z,5.63
2018-12-08T11:06:22.680Z,5.60
2018-12-08T11:08:52.895Z,5.51
2018-12-08T11:11:23.311Z,5.41
2018-12-08T11:13:53.517Z,5.31
2018-12-08T11:16:23.765Z,5.42
2018-12-08T11:18:54.047Z,5.54
2018-12-08T11:21:24.402Z,5.35
2018-12-08T11:23:54.608Z,5.34
2018-12-08T11:26:24.966Z,5.53
2018-12-08T11:28:55.156Z,5.72
2018-12-08T11:31:25.303Z,5.83
2018-12-08T11:33:55.507Z,5.74
2018-12-08T11:36:25.703Z,5.95
2018-12-08T11:38:55.958Z,6.02
2018-12-08T11:41:26.245Z,6.15
2018-12-08T11:43:56.427Z,6.37
2018-12-08T11:46:26.704Z,6.48
2018-12-08T11:48:57.067Z,6.40
2018-12-08T11:51:27.333Z,6.36
2018-12-08T11:53:57.544Z,6.17
2018-12-08T11:56:28.023Z,6.14
2018-12-08T11:58:58.241Z,6.15
2018-12-08T12:01:28.561Z,6.19
2018-12-08T12:03:58.837Z,6.16
2018-12-08T12:06:28.958Z,6.28
2018-12-08T12:08:59.497Z,6.26
2018-12-08T12:11:30.334Z,6.44
2018-12-08T12:14:00.612Z,6.66
2018-12-08T12:16:31.845Z,6.80
2018-12-08T12:19:02.160Z,6.91
2018-12-08T12:21:32.325Z,6.97
2018-12-08T12:24:02.834Z,7.05
2018-12-08T12:26:33.203Z,7.11
2018-12-08T12:29:03.600Z,7.07
2018-12-08T12:31:33.743Z,6.93
2018-12-08T12:34:04.346Z,6.95
2018-12-08T12:36:34.452Z,7.02
2018-12-08T12:39:05.962Z,7.08
2018-12-08T12:41:38.319Z,7.08
2018-12-08T12:44:09.618Z,7.02
2018-12-08T12:46:39.889Z,7.06
2018-12-08T12:49:10.405Z,7.01
2018-12-08T12:51:40.773Z,6.95
2018-12-08T12:54:11.096Z,6.95
2018-12-08T12:56:41.575Z,6.94
2018-12-08T12:59:11.877Z,6.99
2018-12-08T13:01:42.505Z,7.02
2018-12-08T13:04:12.798Z,6.94
2018-12-08T13:06:43.253Z,6.95
2018-12-08T13:09:13.633Z,7.07
2018-12-08T13:11:45.224Z,7.24
2018-12-08T13:14:15.465Z,7.30
2018-12-08T13:16:45.674Z,7.21
2018-12-08T13:19:15.968Z,7.19
2018-12-08T13:21:46.327Z,7.00
2018-12-08T13:24:16.615Z,6.98
2018-12-08T13:26:46.822Z,6.99
2018-12-08T13:29:17.049Z,6.95
2018-12-08T13:31:47.866Z,6.97
2018-12-08T13:34:25.660Z,6.91
2018-12-08T13:36:55.866Z,6.78
2018-12-08T13:39:26.132Z,6.73
2018-12-08T13:41:56.443Z,6.69
2018-12-08T13:44:37.568Z,6.70
2018-12-08T13:47:07.929Z,6.82
2018-12-08T13:49:38.382Z,6.78
2018-12-08T13:52:08.692Z,6.72
2018-12-08T13:54:46.704Z,6.71
2018-12-08T13:57:17.042Z,6.63
2018-12-08T13:59:55.801Z,6.61
2018-12-08T14:02:28.120Z,6.59
2018-12-08T14:04:58.401Z,6.60
2018-12-08T14:07:28.580Z,6.58
2018-12-08T14:09:58.834Z,6.54
2018-12-08T14:12:29.040Z,6.51
2018-12-08T14:14:59.464Z,6.54
2018-12-08T14:17:29.647Z,6.48
2018-12-08T14:20:09.422Z,6.38
2018-12-08T14:22:39.810Z,6.33
2018-12-08T14:25:10.093Z,6.28
2018-12-08T14:27:40.381Z,6.27
2018-12-08T14:30:11.961Z,6.33
2018-12-08T14:32:42.390Z,6.33
2018-12-08T14:35:13.046Z,6.40
2018-12-08T14:37:43.260Z,6.41
2018-12-08T14:40:13.477Z,6.51
2018-12-08T14:42:44.089Z,6.41
2018-12-08T14:45:14.469Z,6.51
2018-12-08T14:47:44.701Z,6.54
2018-12-08T14:50:15.084Z,6.58
2018-12-08T14:52:45.219Z,6.47
2018-12-08T14:55:16.243Z,6.39
2018-12-08T14:57:46.387Z,6.14
2018-12-08T15:00:16.704Z,6.18
2018-12-08T15:02:46.996Z,6.12
2018-12-08T15:05:17.332Z,5.88
2018-12-08T15:07:47.383Z,5.91
2018-12-08T15:10:17.504Z,5.97
2018-12-08T15:12:48.777Z,5.94
2018-12-08T15:15:18.962Z,5.89
2018-12-08T15:17:49.216Z,5.87
2018-12-08T15:20:19.415Z,5.87
2018-12-08T15:22:49.647Z,5.91
2018-12-08T15:25:19.963Z,5.88
2018-12-08T15:27:50.236Z,5.89
2018-12-08T15:30:20.650Z,5.96
2018-12-08T15:32:51.114Z,6.02
2018-12-08T15:35:21.504Z,6.08
2018-12-08T15:37:51.841Z,6.08
2018-12-08T15:40:22.149Z,6.03
2018-12-08T15:42:52.548Z,5.97
2018-12-08T15:45:22.989Z,5.91
2018-12-08T15:47:53.261Z,5.92
2018-12-08T15:50:23.653Z,5.90
2018-12-08T15:52:53.891Z,5.87
2018-12-08T15:55:24.084Z,5.78
2018-12-08T15:57:54.487Z,5.84
2018-12-08T16:00:24.724Z,5.74
2018-12-08T16:02:55.059Z,5.59
2018-12-08T16:05:25.891Z,5.62
2018-12-08T16:07:56.229Z,5.52
2018-12-08T16:10:26.619Z,5.47
2018-12-08T16:12:56.959Z,5.31
2018-12-08T16:15:27.260Z,5.24
2018-12-08T16:17:57.548Z,5.22
2018-12-08T16:20:27.879Z,5.06
2018-12-08T16:22:57.959Z,5.12
2018-12-08T16:25:28.457Z,5.12
2018-12-08T16:27:58.696Z,5.02
2018-12-08T16:30:28.908Z,5.04
2018-12-08T16:32:59.509Z,4.98
2018-12-08T16:35:30.028Z,4.95
2018-12-08T16:38:00.325Z,4.98
2018-12-08T16:40:30.541Z,4.98
2018-12-08T16:43:00.780Z,5.02
2018-12-08T16:45:31.082Z,5.02
2018-12-08T16:48:01.276Z,5.13
2018-12-08T16:50:31.659Z,5.14
2018-12-08T16:53:01.996Z,5.23
2018-12-08T16:55:32.338Z,5.17
2018-12-08T16:58:02.582Z,5.21
2018-12-08T17:00:33.014Z,5.26
2018-12-08T17:03:04.013Z,5.24
2018-12-08T17:05:34.515Z,5.27
2018-12-08T17:08:04.975Z,5.36
2018-12-08T17:10:35.776Z,5.29
2018-12-08T17:13:05.916Z,5.39
2018-12-08T17:15:36.238Z,5.46
2018-12-08T17:18:08.503Z,5.47
2018-12-08T17:20:38.853Z,5.54
2018-12-08T17:23:09.127Z,5.61
2018-12-08T17:25:39.471Z,5.52
2018-12-08T17:28:09.613Z,5.49
2018-12-08T17:30:39.866Z,5.40
2018-12-08T17:33:10.210Z,5.40
2018-12-08T17:35:40.871Z,5.49
2018-12-08T17:38:11.216Z,5.59
2018-12-08T17:40:41.401Z,5.59
2018-12-08T17:43:11.678Z,5.61
2018-12-08T17:45:42.028Z,5.57
2018-12-08T17:48:12.408Z,5.59
2018-12-08T17:50:42.912Z,5.60
2018-12-08T17:53:13.549Z,5.53
2018-12-08T17:55:43.876Z,5.50
2018-12-08T17:58:14.228Z,5.41
2018-12-08T18:00:44.488Z,5.49
2018-12-08T18:03:14.702Z,5.48
2018-12-08T18:05:45.075Z,5.46
2018-12-08T18:08:15.661Z,5.49
2018-12-08T18:10:45.932Z,5.30
2018-12-08T18:13:16.393Z,5.33
2018-12-08T18:15:46.656Z,5.41
2018-12-08T18:18:17.066Z,5.35
2018-12-08T18:20:48.169Z,5.29
2018-12-08T18:23:18.579Z,5.29
2018-12-08T18:25:48.917Z,5.30
2018-12-08T18:28:19.253Z,5.11
2018-12-08T18:30:49.572Z,4.79
2018-12-08T18:33:19.951Z,4.82
2018-12-08T18:35:50.457Z,4.77
2018-12-08T18:38:21.420Z,4.81
2018-12-08T18:40:51.798Z,4.47
2018-12-08T18:43:22.393Z,4.21
2018-12-08T18:45:52.889Z,4.43
2018-12-08T18:48:23.455Z,4.49
2018-12-08T18:50:54.167Z,4.50
2018-12-08T18:53:24.757Z,4.63
2018-12-08T18:55:54.950Z,4.71
2018-12-08T18:58:25.364Z,4.77
2018-12-08T19:00:55.638Z,4.87
2018-12-08T19:03:25.759Z,4.91
2018-12-08T19:05:56.224Z,4.94
2018-12-08T19:08:26.871Z,4.81
2018-12-08T19:10:57.073Z,4.81
2018-12-08T19:13:27.462Z,4.80
2018-12-08T19:15:57.753Z,4.94
2018-12-08T19:18:28.064Z,5.02
2018-12-08T19:20:58.473Z,5.05
2018-12-08T19:23:28.884Z,5.04
2018-12-08T19:25:59.255Z,4.95
2018-12-08T19:28:29.504Z,4.95
2018-12-08T19:30:59.725Z,4.95
2018-12-08T19:33:29.994Z,4.90
2018-12-08T19:36:00.500Z,4.87
2018-12-08T19:38:30.735Z,4.87
2018-12-08T19:41:01.064Z,4.91
2018-12-08T19:43:31.437Z,4.90
2018-12-08T19:46:01.665Z,4.88
2018-12-08T19:48:32.007Z,4.90
2018-12-08T19:51:02.311Z,4.74
2018-12-08T19:53:32.695Z,4.73
2018-12-08T19:56:03.292Z,4.68
2018-12-08T19:58:33.678Z,4.63
2018-12-08T20:01:04.220Z,4.53
2018-12-08T20:03:35.611Z,4.50
2018-12-08T20:06:05.957Z,4.21
2018-12-08T20:08:36.358Z,4.29
2018-12-08T20:11:06.689Z,4.27
2018-12-08T20:13:36.910Z,4.20
2018-12-08T20:16:07.245Z,4.24
2018-12-08T20:18:37.564Z,4.26
2018-12-08T20:21:07.999Z,4.29
2018-12-08T20:23:38.389Z,4.37
2018-12-08T20:26:08.745Z,4.38
2018-12-08T20:28:39.008Z,4.37
2018-12-08T20:31:09.273Z,4.49
2018-12-08T20:33:39.578Z,4.63
2018-12-08T20:36:09.932Z,4.69
2018-12-08T20:38:40.254Z,4.67
2018-12-08T20:41:10.625Z,4.67
2018-12-08T20:43:40.923Z,4.74
2018-12-08T20:46:11.203Z,4.80
2018-12-08T20:48:42.182Z,4.72
2018-12-08T20:51:12.482Z,4.74
2018-12-08T20:53:42.781Z,4.51
2018-12-08T20:56:13.280Z,4.49
2018-12-08T20:58:43.812Z,4.53
2018-12-08T21:01:14.115Z,4.63
2018-12-08T21:03:44.275Z,4.47
2018-12-08T21:06:15.684Z,4.23
2018-12-08T21:08:46.096Z,4.14
2018-12-08T21:11:16.222Z,4.10
2018-12-08T21:13:46.583Z,4.05
2018-12-08T21:16:16.981Z,4.27
2018-12-08T21:18:47.137Z,4.41
2018-12-08T21:21:17.401Z,4.33
2018-12-08T21:23:47.554Z,4.49
2018-12-08T21:26:17.843Z,4.47
2018-12-08T21:28:48.233Z,4.62
2018-12-08T21:31:18.631Z,4.78
2018-12-08T21:33:48.881Z,4.80
2018-12-08T21:36:19.242Z,4.83
2018-12-08T21:38:49.380Z,4.86
2018-12-08T21:41:19.784Z,4.95
2018-12-08T21:43:50.000Z,5.00
2018-12-08T21:46:20.214Z,5.09
2018-12-08T21:48:50.588Z,5.18
2018-12-08T21:51:20.763Z,5.25
2018-12-08T21:53:50.960Z,5.18
2018-12-08T21:56:21.265Z,5.19
2018-12-08T21:58:51.854Z,5.12
2018-12-08T22:01:22.229Z,5.18
2018-12-08T22:03:52.563Z,5.22
2018-12-08T22:06:22.624Z,5.02
2018-12-08T22:08:52.934Z,4.94
2018-12-08T22:11:23.135Z,4.98
2018-12-08T22:13:53.416Z,4.98
2018-12-08T22:16:23.770Z,4.89
2018-12-08T22:18:53.892Z,4.99
2018-12-08T22:21:24.080Z,4.97
2018-12-08T22:23:54.148Z,5.07
2018-12-08T22:26:24.673Z,5.08
2018-12-08T22:28:55.024Z,5.14
2018-12-08T22:31:25.284Z,5.20
2018-12-08T22:33:56.185Z,5.17
2018-12-08T22:36:26.490Z,5.08
2018-12-08T22:38:56.524Z,5.03
2018-12-08T22:41:26.717Z,5.03
2018-12-08T22:43:56.952Z,4.81
2018-12-08T22:46:27.196Z,4.76
2018-12-08T22:48:57.395Z,4.83
2018-12-08T22:51:27.704Z,4.80
2018-12-08T22:53:57.778Z,4.75
2018-12-08T22:56:27.881Z,4.75
2018-12-08T22:58:58.148Z,4.66
2018-12-08T23:01:28.642Z,4.49
2018-12-08T23:03:59.059Z,4.29
2018-12-08T23:06:29.486Z,4.29
2018-12-08T23:09:00.363Z,4.27
2018-12-08T23:11:30.543Z,4.43
2018-12-08T23:14:00.916Z,4.40
2018-12-08T23:16:31.137Z,4.40
2018-12-08T23:19:01.248Z,4.43
2018-12-08T23:21:31.422Z,4.51
2018-12-08T23:24:01.937Z,4.50
2018-12-08T23:26:32.074Z,4.50
2018-12-08T23:29:02.313Z,4.18
2018-12-08T23:31:32.788Z,4.03
2018-12-08T23:34:02.996Z,4.05
2018-12-08T23:36:33.410Z,4.29
2018-12-08T23:39:05.596Z,4.46
2018-12-08T23:41:35.861Z,4.58
2018-12-08T23:44:06.098Z,4.63
2018-12-08T23:46:37.621Z,4.71
2018-12-08T23:49:11.299Z,4.86
2018-12-08T23:51:41.209Z,4.91
2018-12-08T23:54:11.553Z,4.80
2018-12-08T23:56:41.852Z,4.73
2018-12-08T23:59:12.105Z,4.92
